sensor_id;sensor_type;location;lat;lon;timestamp;temperature;humidity
15543;DHT22;7873;52.230;12.856;2023-04-03T00:01:16;25.60;35.60
15543;DHT22;7873;52.230;12.856;2023-04-03T00:03:43;25.50;35.60
15543;DHT22;7873;52.230;12.856;2023-04-03T00:06:11;25.50;35.60
15543;DHT22;7873;52.230;12.856;2023-04-03T00:08:38;25.50;35.70
15543;DHT22;7873;52.230;12.856;2023-04-03T00:11:06;25.50;35.70
15543;DHT22;7873;52.230;12.856;2023-04-03T00:13:33;25.50;35.90
15543;DHT22;7873;52.230;12.856;2023-04-03T00:16:00;25.40;35.90
15543;DHT22;7873;52.230;12.856;2023-04-03T00:18:28;25.30;36.00
15543;DHT22;7873;52.230;12.856;2023-04-03T00:20:55;25.20;36.30
15543;DHT22;7873;52.230;12.856;2023-04-03T00:23:23;25.10;36.50
15543;DHT22;7873;52.230;12.856;2023-04-03T00:25:50;25.00;36.70
15543;DHT22;7873;52.230;12.856;2023-04-03T00:28:17;25.00;36.80
15543;DHT22;7873;52.230;12.856;2023-04-03T00:30:43;24.90;36.90
15543;DHT22;7873;52.230;12.856;2023-04-03T00:33:11;24.80;36.90
15543;DHT22;7873;52.230;12.856;2023-04-03T00:35:38;24.80;37.10
15543;DHT22;7873;52.230;12.856;2023-04-03T00:38:05;24.70;37.30
15543;DHT22;7873;52.230;12.856;2023-04-03T00:40:35;24.70;37.30
15543;DHT22;7873;52.230;12.856;2023-04-03T00:43:05;24.60;37.30
15543;DHT22;7873;52.230;12.856;2023-04-03T00:45:38;24.60;37.50
15543;DHT22;7873;52.230;12.856;2023-04-03T00:48:06;24.60;37.60
15543;DHT22;7873;52.230;12.856;2023-04-03T00:50:37;24.50;37.60
15543;DHT22;7873;52.230;12.856;2023-04-03T00:53:07;24.50;37.70
15543;DHT22;7873;52.230;12.856;2023-04-03T00:55:38;24.50;37.80
15543;DHT22;7873;52.230;12.856;2023-04-03T00:58:05;24.40;37.80
15543;DHT22;7873;52.230;12.856;2023-04-03T01:00:33;24.40;37.80
15543;DHT22;7873;52.230;12.856;2023-04-03T01:03:01;24.40;37.80
15543;DHT22;7873;52.230;12.856;2023-04-03T01:05:28;24.30;37.50
15543;DHT22;7873;52.230;12.856;2023-04-03T01:07:54;24.30;37.50
15543;DHT22;7873;52.230;12.856;2023-04-03T01:10:22;24.30;37.60
15543;DHT22;7873;52.230;12.856;2023-04-03T01:12:52;24.30;37.80
15543;DHT22;7873;52.230;12.856;2023-04-03T01:15:20;24.30;37.70
15543;DHT22;7873;52.230;12.856;2023-04-03T01:17:49;24.30;37.90
15543;DHT22;7873;52.230;12.856;2023-04-03T01:23:33;24.30;37.40
15543;DHT22;7873;52.230;12.856;2023-04-03T01:26:09;24.40;37.30
15543;DHT22;7873;52.230;12.856;2023-04-03T01:28:38;24.40;37.40
15543;DHT22;7873;52.230;12.856;2023-04-03T01:31:07;24.40;37.50
15543;DHT22;7873;52.230;12.856;2023-04-03T01:33:42;24.40;37.40
15543;DHT22;7873;52.230;12.856;2023-04-03T01:36:10;24.40;37.20
15543;DHT22;7873;52.230;12.856;2023-04-03T01:38:40;24.40;37.30
15543;DHT22;7873;52.230;12.856;2023-04-03T01:41:07;24.40;37.20
15543;DHT22;7873;52.230;12.856;2023-04-03T01:43:34;24.30;37.30
15543;DHT22;7873;52.230;12.856;2023-04-03T01:46:00;24.30;37.40
15543;DHT22;7873;52.230;12.856;2023-04-03T01:48:27;24.30;37.70
15543;DHT22;7873;52.230;12.856;2023-04-03T01:50:55;24.10;37.40
15543;DHT22;7873;52.230;12.856;2023-04-03T01:53:22;24.10;37.60
15543;DHT22;7873;52.230;12.856;2023-04-03T01:55:49;24.10;37.60
15543;DHT22;7873;52.230;12.856;2023-04-03T01:58:15;24.00;37.60
15543;DHT22;7873;52.230;12.856;2023-04-03T02:00:42;24.00;37.70
15543;DHT22;7873;52.230;12.856;2023-04-03T02:03:09;24.00;37.70
15543;DHT22;7873;52.230;12.856;2023-04-03T02:05:35;24.00;37.60
15543;DHT22;7873;52.230;12.856;2023-04-03T02:08:03;24.00;37.60
15543;DHT22;7873;52.230;12.856;2023-04-03T02:10:31;24.00;37.60
15543;DHT22;7873;52.230;12.856;2023-04-03T02:12:57;23.90;37.50
15543;DHT22;7873;52.230;12.856;2023-04-03T02:15:24;23.90;37.40
15543;DHT22;7873;52.230;12.856;2023-04-03T02:17:51;23.90;37.60
15543;DHT22;7873;52.230;12.856;2023-04-03T02:20:18;23.90;37.60
15543;DHT22;7873;52.230;12.856;2023-04-03T02:22:45;23.80;37.60
15543;DHT22;7873;52.230;12.856;2023-04-03T02:25:13;23.80;37.60
15543;DHT22;7873;52.230;12.856;2023-04-03T02:27:40;23.80;37.70
15543;DHT22;7873;52.230;12.856;2023-04-03T02:30:07;23.80;37.70
15543;DHT22;7873;52.230;12.856;2023-04-03T02:32:35;23.80;37.80
15543;DHT22;7873;52.230;12.856;2023-04-03T02:35:02;23.80;37.60
15543;DHT22;7873;52.230;12.856;2023-04-03T02:37:29;23.80;37.70
15543;DHT22;7873;52.230;12.856;2023-04-03T02:39:56;23.80;37.60
15543;DHT22;7873;52.230;12.856;2023-04-03T02:42:24;23.80;37.70
15543;DHT22;7873;52.230;12.856;2023-04-03T02:44:51;23.90;37.60
15543;DHT22;7873;52.230;12.856;2023-04-03T02:47:18;23.90;37.60
15543;DHT22;7873;52.230;12.856;2023-04-03T02:49:44;23.90;37.60
15543;DHT22;7873;52.230;12.856;2023-04-03T02:52:11;23.90;37.60
15543;DHT22;7873;52.230;12.856;2023-04-03T02:54:38;23.90;37.60
15543;DHT22;7873;52.230;12.856;2023-04-03T02:57:05;23.90;37.40
15543;DHT22;7873;52.230;12.856;2023-04-03T02:59:35;23.90;37.60
15543;DHT22;7873;52.230;12.856;2023-04-03T03:02:02;23.90;37.50
15543;DHT22;7873;52.230;12.856;2023-04-03T03:04:28;23.80;37.60
15543;DHT22;7873;52.230;12.856;2023-04-03T03:06:55;23.80;37.70
15543;DHT22;7873;52.230;12.856;2023-04-03T03:09:22;23.80;37.60
15543;DHT22;7873;52.230;12.856;2023-04-03T03:11:49;23.70;37.60
15543;DHT22;7873;52.230;12.856;2023-04-03T03:14:15;23.70;37.60
15543;DHT22;7873;52.230;12.856;2023-04-03T03:16:43;23.70;37.80
15543;DHT22;7873;52.230;12.856;2023-04-03T03:19:10;23.60;37.80
15543;DHT22;7873;52.230;12.856;2023-04-03T03:21:37;23.60;37.90
15543;DHT22;7873;52.230;12.856;2023-04-03T03:24:03;23.50;37.90
15543;DHT22;7873;52.230;12.856;2023-04-03T03:26:30;23.50;38.00
15543;DHT22;7873;52.230;12.856;2023-04-03T03:28:57;23.50;38.00
15543;DHT22;7873;52.230;12.856;2023-04-03T03:31:24;23.50;38.00
15543;DHT22;7873;52.230;12.856;2023-04-03T03:33:52;23.50;37.90
15543;DHT22;7873;52.230;12.856;2023-04-03T03:36:19;23.40;37.90
15543;DHT22;7873;52.230;12.856;2023-04-03T03:38:45;23.40;38.00
15543;DHT22;7873;52.230;12.856;2023-04-03T03:41:12;23.50;38.00
15543;DHT22;7873;52.230;12.856;2023-04-03T03:43:39;23.50;37.90
15543;DHT22;7873;52.230;12.856;2023-04-03T03:46:06;23.50;37.90
15543;DHT22;7873;52.230;12.856;2023-04-03T03:48:33;23.60;37.80
15543;DHT22;7873;52.230;12.856;2023-04-03T03:51:01;23.60;37.90
15543;DHT22;7873;52.230;12.856;2023-04-03T03:53:27;23.60;37.90
15543;DHT22;7873;52.230;12.856;2023-04-03T03:55:54;23.60;37.70
15543;DHT22;7873;52.230;12.856;2023-04-03T03:58:21;23.70;37.90
15543;DHT22;7873;52.230;12.856;2023-04-03T04:00:48;23.60;37.90
15543;DHT22;7873;52.230;12.856;2023-04-03T04:03:14;23.70;37.90
15543;DHT22;7873;52.230;12.856;2023-04-03T04:05:41;23.70;37.90
15543;DHT22;7873;52.230;12.856;2023-04-03T04:08:09;23.70;37.70
15543;DHT22;7873;52.230;12.856;2023-04-03T04:10:36;23.80;37.70
15543;DHT22;7873;52.230;12.856;2023-04-03T04:13:04;23.70;38.60
15543;DHT22;7873;52.230;12.856;2023-04-03T04:15:31;23.60;37.80
15543;DHT22;7873;52.230;12.856;2023-04-03T04:17:57;23.70;37.60
15543;DHT22;7873;52.230;12.856;2023-04-03T04:20:24;23.60;36.90
15543;DHT22;7873;52.230;12.856;2023-04-03T04:22:51;23.60;37.30
15543;DHT22;7873;52.230;12.856;2023-04-03T04:25:19;23.60;35.20
15543;DHT22;7873;52.230;12.856;2023-04-03T04:27:46;23.60;36.80
15543;DHT22;7873;52.230;12.856;2023-04-03T04:30:13;23.60;37.00
15543;DHT22;7873;52.230;12.856;2023-04-03T04:32:40;23.70;37.20
15543;DHT22;7873;52.230;12.856;2023-04-03T04:35:07;23.70;37.30
15543;DHT22;7873;52.230;12.856;2023-04-03T04:37:34;23.60;37.90
15543;DHT22;7873;52.230;12.856;2023-04-03T04:40:01;23.50;37.60
15543;DHT22;7873;52.230;12.856;2023-04-03T04:42:30;23.50;37.90
15543;DHT22;7873;52.230;12.856;2023-04-03T04:44:56;23.50;36.30
15543;DHT22;7873;52.230;12.856;2023-04-03T04:47:23;23.30;35.80
15543;DHT22;7873;52.230;12.856;2023-04-03T04:49:50;23.20;36.40
15543;DHT22;7873;52.230;12.856;2023-04-03T04:52:16;23.20;36.20
15543;DHT22;7873;52.230;12.856;2023-04-03T04:54:43;23.20;36.10
15543;DHT22;7873;52.230;12.856;2023-04-03T04:57:10;23.10;36.60
15543;DHT22;7873;52.230;12.856;2023-04-03T04:59:38;23.10;36.70
15543;DHT22;7873;52.230;12.856;2023-04-03T05:02:04;23.10;36.60
15543;DHT22;7873;52.230;12.856;2023-04-03T05:04:31;23.10;36.80
15543;DHT22;7873;52.230;12.856;2023-04-03T05:06:58;23.10;36.90
15543;DHT22;7873;52.230;12.856;2023-04-03T05:09:25;23.00;36.90
15543;DHT22;7873;52.230;12.856;2023-04-03T05:11:52;23.00;36.90
15543;DHT22;7873;52.230;12.856;2023-04-03T05:14:19;23.00;37.00
15543;DHT22;7873;52.230;12.856;2023-04-03T05:16:47;23.00;36.90
15543;DHT22;7873;52.230;12.856;2023-04-03T05:19:13;22.90;37.10
15543;DHT22;7873;52.230;12.856;2023-04-03T05:21:40;23.00;36.80
15543;DHT22;7873;52.230;12.856;2023-04-03T05:24:07;23.00;36.80
15543;DHT22;7873;52.230;12.856;2023-04-03T05:26:34;23.00;36.90
15543;DHT22;7873;52.230;12.856;2023-04-03T05:29:01;23.00;36.90
15543;DHT22;7873;52.230;12.856;2023-04-03T05:31:28;23.00;33.40
15543;DHT22;7873;52.230;12.856;2023-04-03T05:33:57;22.70;32.20
15543;DHT22;7873;52.230;12.856;2023-04-03T05:36:24;22.50;31.50
15543;DHT22;7873;52.230;12.856;2023-04-03T05:38:50;22.40;31.60
15543;DHT22;7873;52.230;12.856;2023-04-03T05:41:17;22.20;30.70
15543;DHT22;7873;52.230;12.856;2023-04-03T05:43:44;22.30;31.90
15543;DHT22;7873;52.230;12.856;2023-04-03T05:46:11;22.30;31.80
15543;DHT22;7873;52.230;12.856;2023-04-03T05:48:39;22.40;32.30
15543;DHT22;7873;52.230;12.856;2023-04-03T05:51:09;22.50;32.80
15543;DHT22;7873;52.230;12.856;2023-04-03T05:53:41;22.60;32.30
15543;DHT22;7873;52.230;12.856;2023-04-03T05:56:09;22.50;32.10
15543;DHT22;7873;52.230;12.856;2023-04-03T05:58:36;22.50;32.70
15543;DHT22;7873;52.230;12.856;2023-04-03T06:01:03;22.60;32.80
15543;DHT22;7873;52.230;12.856;2023-04-03T06:03:30;22.50;32.90
15543;DHT22;7873;52.230;12.856;2023-04-03T06:05:57;22.30;33.20
15543;DHT22;7873;52.230;12.856;2023-04-03T06:08:25;22.20;33.50
15543;DHT22;7873;52.230;12.856;2023-04-03T06:13:47;22.10;34.20
15543;DHT22;7873;52.230;12.856;2023-04-03T06:16:14;22.10;34.40
15543;DHT22;7873;52.230;12.856;2023-04-03T06:18:42;22.10;34.60
15543;DHT22;7873;52.230;12.856;2023-04-03T06:21:08;22.00;34.60
15543;DHT22;7873;52.230;12.856;2023-04-03T06:23:36;22.00;34.70
15543;DHT22;7873;52.230;12.856;2023-04-03T06:26:03;22.10;34.80
15543;DHT22;7873;52.230;12.856;2023-04-03T06:28:30;22.10;34.80
15543;DHT22;7873;52.230;12.856;2023-04-03T06:30:57;22.00;34.80
15543;DHT22;7873;52.230;12.856;2023-04-03T06:33:24;22.00;34.90
15543;DHT22;7873;52.230;12.856;2023-04-03T06:35:55;22.00;35.00
15543;DHT22;7873;52.230;12.856;2023-04-03T06:38:23;22.00;35.00
15543;DHT22;7873;52.230;12.856;2023-04-03T06:40:51;22.00;35.10
15543;DHT22;7873;52.230;12.856;2023-04-03T06:43:18;22.00;35.20
15543;DHT22;7873;52.230;12.856;2023-04-03T06:45:45;21.90;35.20
15543;DHT22;7873;52.230;12.856;2023-04-03T06:48:12;21.90;35.20
15543;DHT22;7873;52.230;12.856;2023-04-03T06:50:39;22.00;35.40
15543;DHT22;7873;52.230;12.856;2023-04-03T06:53:06;21.90;35.40
15543;DHT22;7873;52.230;12.856;2023-04-03T06:55:33;21.90;35.40
15543;DHT22;7873;52.230;12.856;2023-04-03T06:58:01;21.90;35.50
15543;DHT22;7873;52.230;12.856;2023-04-03T07:00:28;21.90;35.50
15543;DHT22;7873;52.230;12.856;2023-04-03T07:02:55;21.90;35.60
15543;DHT22;7873;52.230;12.856;2023-04-03T07:05:22;21.90;35.70
15543;DHT22;7873;52.230;12.856;2023-04-03T07:07:49;21.90;35.70
15543;DHT22;7873;52.230;12.856;2023-04-03T07:10:16;21.90;35.70
15543;DHT22;7873;52.230;12.856;2023-04-03T07:12:43;21.90;35.80
15543;DHT22;7873;52.230;12.856;2023-04-03T07:15:11;21.90;35.90
15543;DHT22;7873;52.230;12.856;2023-04-03T07:17:39;21.80;35.90
15543;DHT22;7873;52.230;12.856;2023-04-03T07:20:06;21.80;36.00
15543;DHT22;7873;52.230;12.856;2023-04-03T07:22:34;21.80;36.00
15543;DHT22;7873;52.230;12.856;2023-04-03T07:25:01;21.80;36.00
15543;DHT22;7873;52.230;12.856;2023-04-03T07:27:28;21.80;36.10
15543;DHT22;7873;52.230;12.856;2023-04-03T07:29:55;21.80;36.10
15543;DHT22;7873;52.230;12.856;2023-04-03T07:32:23;21.70;36.10
15543;DHT22;7873;52.230;12.856;2023-04-03T07:34:50;22.00;36.00
15543;DHT22;7873;52.230;12.856;2023-04-03T07:37:17;22.10;35.70
15543;DHT22;7873;52.230;12.856;2023-04-03T07:39:44;22.20;35.30
15543;DHT22;7873;52.230;12.856;2023-04-03T07:42:11;22.20;35.00
15543;DHT22;7873;52.230;12.856;2023-04-03T07:44:38;22.30;34.70
15543;DHT22;7873;52.230;12.856;2023-04-03T07:47:05;22.40;34.30
15543;DHT22;7873;52.230;12.856;2023-04-03T07:49:34;22.40;34.20
15543;DHT22;7873;52.230;12.856;2023-04-03T07:52:03;22.10;35.00
15543;DHT22;7873;52.230;12.856;2023-04-03T07:54:30;21.80;35.60
15543;DHT22;7873;52.230;12.856;2023-04-03T07:56:57;21.70;35.90
15543;DHT22;7873;52.230;12.856;2023-04-03T07:59:24;21.60;36.10
15543;DHT22;7873;52.230;12.856;2023-04-03T08:01:50;21.60;36.30
15543;DHT22;7873;52.230;12.856;2023-04-03T08:04:17;21.60;36.30
15543;DHT22;7873;52.230;12.856;2023-04-03T08:06:46;21.70;36.30
15543;DHT22;7873;52.230;12.856;2023-04-03T08:09:13;21.90;36.10
15543;DHT22;7873;52.230;12.856;2023-04-03T08:11:41;22.10;35.80
15543;DHT22;7873;52.230;12.856;2023-04-03T08:14:08;22.30;35.20
15543;DHT22;7873;52.230;12.856;2023-04-03T08:16:40;22.50;34.80
15543;DHT22;7873;52.230;12.856;2023-04-03T08:19:07;22.70;34.40
15543;DHT22;7873;52.230;12.856;2023-04-03T08:21:34;22.90;33.90
15543;DHT22;7873;52.230;12.856;2023-04-03T08:24:02;23.10;33.80
15543;DHT22;7873;52.230;12.856;2023-04-03T08:26:29;23.10;33.70
15543;DHT22;7873;52.230;12.856;2023-04-03T08:28:56;23.20;33.60
15543;DHT22;7873;52.230;12.856;2023-04-03T08:31:22;23.30;33.50
15543;DHT22;7873;52.230;12.856;2023-04-03T08:33:49;23.30;33.30
15543;DHT22;7873;52.230;12.856;2023-04-03T08:36:17;23.40;33.20
15543;DHT22;7873;52.230;12.856;2023-04-03T08:38:45;23.40;33.20
15543;DHT22;7873;52.230;12.856;2023-04-03T08:41:15;23.40;33.20
15543;DHT22;7873;52.230;12.856;2023-04-03T08:43:55;23.50;33.20
15543;DHT22;7873;52.230;12.856;2023-04-03T08:46:31;23.50;33.20
15543;DHT22;7873;52.230;12.856;2023-04-03T08:49:06;23.40;33.20
15543;DHT22;7873;52.230;12.856;2023-04-03T08:51:40;23.40;33.20
15543;DHT22;7873;52.230;12.856;2023-04-03T08:54:14;23.40;33.30
15543;DHT22;7873;52.230;12.856;2023-04-03T08:56:51;23.40;33.20
15543;DHT22;7873;52.230;12.856;2023-04-03T08:59:19;23.40;33.40
15543;DHT22;7873;52.230;12.856;2023-04-03T09:01:53;23.30;33.60
15543;DHT22;7873;52.230;12.856;2023-04-03T09:04:20;23.20;33.90
15543;DHT22;7873;52.230;12.856;2023-04-03T09:06:49;23.10;34.10
15543;DHT22;7873;52.230;12.856;2023-04-03T09:09:23;23.00;34.40
15543;DHT22;7873;52.230;12.856;2023-04-03T09:12:00;22.90;34.60
15543;DHT22;7873;52.230;12.856;2023-04-03T09:14:36;22.80;34.90
15543;DHT22;7873;52.230;12.856;2023-04-03T09:17:09;22.70;35.00
15543;DHT22;7873;52.230;12.856;2023-04-03T09:19:41;22.70;35.20
15543;DHT22;7873;52.230;12.856;2023-04-03T09:22:16;22.60;35.30
15543;DHT22;7873;52.230;12.856;2023-04-03T09:24:45;22.60;35.40
15543;DHT22;7873;52.230;12.856;2023-04-03T09:27:14;22.60;35.50
15543;DHT22;7873;52.230;12.856;2023-04-03T09:29:41;22.50;35.60
15543;DHT22;7873;52.230;12.856;2023-04-03T09:32:18;22.50;35.70
15543;DHT22;7873;52.230;12.856;2023-04-03T09:34:47;22.50;35.70
15543;DHT22;7873;52.230;12.856;2023-04-03T09:37:33;22.50;35.70
15543;DHT22;7873;52.230;12.856;2023-04-03T09:40:01;22.60;35.50
15543;DHT22;7873;52.230;12.856;2023-04-03T09:42:31;22.60;35.40
15543;DHT22;7873;52.230;12.856;2023-04-03T09:44:59;22.70;35.30
15543;DHT22;7873;52.230;12.856;2023-04-03T09:47:27;22.80;35.10
15543;DHT22;7873;52.230;12.856;2023-04-03T09:52:45;23.00;34.50
15543;DHT22;7873;52.230;12.856;2023-04-03T09:55:14;23.10;34.20
15543;DHT22;7873;52.230;12.856;2023-04-03T09:57:43;23.20;34.00
15543;DHT22;7873;52.230;12.856;2023-04-03T10:00:19;23.30;34.10
15543;DHT22;7873;52.230;12.856;2023-04-03T10:02:49;23.30;33.80
15543;DHT22;7873;52.230;12.856;2023-04-03T10:05:26;23.20;34.80
15543;DHT22;7873;52.230;12.856;2023-04-03T10:08:06;23.10;34.20
15543;DHT22;7873;52.230;12.856;2023-04-03T10:10:36;23.00;34.50
15543;DHT22;7873;52.230;12.856;2023-04-03T10:13:05;22.90;34.90
15543;DHT22;7873;52.230;12.856;2023-04-03T10:15:38;22.80;35.20
15543;DHT22;7873;52.230;12.856;2023-04-03T10:18:13;22.70;35.30
15543;DHT22;7873;52.230;12.856;2023-04-03T10:20:53;22.70;35.60
15543;DHT22;7873;52.230;12.856;2023-04-03T10:23:26;22.60;35.80
15543;DHT22;7873;52.230;12.856;2023-04-03T10:26:01;22.60;35.90
15543;DHT22;7873;52.230;12.856;2023-04-03T10:28:39;22.50;36.10
15543;DHT22;7873;52.230;12.856;2023-04-03T10:31:13;22.40;36.20
15543;DHT22;7873;52.230;12.856;2023-04-03T10:33:47;22.40;36.30
15543;DHT22;7873;52.230;12.856;2023-04-03T10:36:27;22.40;36.40
15543;DHT22;7873;52.230;12.856;2023-04-03T10:39:06;22.40;36.30
15543;DHT22;7873;52.230;12.856;2023-04-03T10:41:46;22.50;36.30
15543;DHT22;7873;52.230;12.856;2023-04-03T10:44:23;22.50;36.10
15543;DHT22;7873;52.230;12.856;2023-04-03T10:46:59;22.60;35.90
15543;DHT22;7873;52.230;12.856;2023-04-03T10:49:35;22.60;35.50
15543;DHT22;7873;52.230;12.856;2023-04-03T10:52:13;22.70;35.30
15543;DHT22;7873;52.230;12.856;2023-04-03T10:54:44;22.80;35.00
15543;DHT22;7873;52.230;12.856;2023-04-03T10:57:15;22.90;34.60
15543;DHT22;7873;52.230;12.856;2023-04-03T10:59:45;23.00;34.60
15543;DHT22;7873;52.230;12.856;2023-04-03T11:02:16;23.00;34.20
15543;DHT22;7873;52.230;12.856;2023-04-03T11:04:51;23.10;34.20
15543;DHT22;7873;52.230;12.856;2023-04-03T11:07:23;23.10;34.20
15543;DHT22;7873;52.230;12.856;2023-04-03T11:09:54;23.10;34.10
15543;DHT22;7873;52.230;12.856;2023-04-03T11:12:25;23.10;34.10
15543;DHT22;7873;52.230;12.856;2023-04-03T11:14:56;23.10;34.40
15543;DHT22;7873;52.230;12.856;2023-04-03T11:17:26;23.00;34.70
15543;DHT22;7873;52.230;12.856;2023-04-03T11:19:59;22.90;35.20
15543;DHT22;7873;52.230;12.856;2023-04-03T11:22:33;22.80;35.30
15543;DHT22;7873;52.230;12.856;2023-04-03T11:25:04;22.70;36.20
15543;DHT22;7873;52.230;12.856;2023-04-03T11:27:41;22.70;35.60
15543;DHT22;7873;52.230;12.856;2023-04-03T11:30:16;22.70;35.80
15543;DHT22;7873;52.230;12.856;2023-04-03T11:32:53;22.60;35.80
15543;DHT22;7873;52.230;12.856;2023-04-03T11:35:31;22.60;35.80
15543;DHT22;7873;52.230;12.856;2023-04-03T11:37:59;22.60;35.90
15543;DHT22;7873;52.230;12.856;2023-04-03T11:40:31;22.60;35.90
15543;DHT22;7873;52.230;12.856;2023-04-03T11:43:04;22.60;36.10
15543;DHT22;7873;52.230;12.856;2023-04-03T11:45:36;22.60;36.10
15543;DHT22;7873;52.230;12.856;2023-04-03T12:09:28;23.00;34.70
15543;DHT22;7873;52.230;12.856;2023-04-03T12:11:58;23.00;34.70
15543;DHT22;7873;52.230;12.856;2023-04-03T12:14:27;23.00;34.60
15543;DHT22;7873;52.230;12.856;2023-04-03T12:16:56;23.00;34.60
15543;DHT22;7873;52.230;12.856;2023-04-03T12:19:27;23.00;34.60
15543;DHT22;7873;52.230;12.856;2023-04-03T12:22:05;23.00;34.80
15543;DHT22;7873;52.230;12.856;2023-04-03T12:24:34;22.90;35.00
15543;DHT22;7873;52.230;12.856;2023-04-03T12:27:16;22.80;35.20
15543;DHT22;7873;52.230;12.856;2023-04-03T12:29:50;22.80;35.60
15543;DHT22;7873;52.230;12.856;2023-04-03T12:32:26;22.70;35.90
15543;DHT22;7873;52.230;12.856;2023-04-03T12:35:14;22.60;35.90
15543;DHT22;7873;52.230;12.856;2023-04-03T12:37:54;22.60;36.10
15543;DHT22;7873;52.230;12.856;2023-04-03T12:40:42;22.60;36.20
15543;DHT22;7873;52.230;12.856;2023-04-03T12:43:18;22.60;36.40
15543;DHT22;7873;52.230;12.856;2023-04-03T12:45:56;22.50;36.30
15543;DHT22;7873;52.230;12.856;2023-04-03T12:48:30;22.50;36.40
15543;DHT22;7873;52.230;12.856;2023-04-03T12:50:58;22.50;36.40
15543;DHT22;7873;52.230;12.856;2023-04-03T12:53:26;22.40;36.60
15543;DHT22;7873;52.230;12.856;2023-04-03T12:55:55;22.60;36.00
15543;DHT22;7873;52.230;12.856;2023-04-03T12:58:25;22.60;35.10
15543;DHT22;7873;52.230;12.856;2023-04-03T13:00:59;22.50;35.10
15543;DHT22;7873;52.230;12.856;2023-04-03T13:03:27;22.60;34.40
15543;DHT22;7873;52.230;12.856;2023-04-03T13:05:57;22.50;33.10
15543;DHT22;7873;52.230;12.856;2023-04-03T13:08:25;22.60;33.00
15543;DHT22;7873;52.230;12.856;2023-04-03T13:10:54;22.60;33.30
15543;DHT22;7873;52.230;12.856;2023-04-03T13:13:23;22.60;32.80
15543;DHT22;7873;52.230;12.856;2023-04-03T13:15:51;22.50;32.90
15543;DHT22;7873;52.230;12.856;2023-04-03T13:18:23;22.50;33.10
15543;DHT22;7873;52.230;12.856;2023-04-03T13:20:52;22.50;32.90
15543;DHT22;7873;52.230;12.856;2023-04-03T13:23:21;21.70;31.80
15543;DHT22;7873;52.230;12.856;2023-04-03T13:25:48;21.70;32.30
15543;DHT22;7873;52.230;12.856;2023-04-03T13:28:17;21.80;33.30
15543;DHT22;7873;52.230;12.856;2023-04-03T13:30:54;21.70;32.70
15543;DHT22;7873;52.230;12.856;2023-04-03T13:33:30;21.80;32.80
15543;DHT22;7873;52.230;12.856;2023-04-03T13:36:00;22.00;31.40
15543;DHT22;7873;52.230;12.856;2023-04-03T13:38:31;22.10;31.60
15543;DHT22;7873;52.230;12.856;2023-04-03T13:41:02;22.00;31.70
15543;DHT22;7873;52.230;12.856;2023-04-03T13:43:31;22.00;31.20
15543;DHT22;7873;52.230;12.856;2023-04-03T13:46:01;21.90;31.50
15543;DHT22;7873;52.230;12.856;2023-04-03T13:48:36;21.60;31.80
15543;DHT22;7873;52.230;12.856;2023-04-03T13:51:06;21.60;32.10
15543;DHT22;7873;52.230;12.856;2023-04-03T13:53:44;21.60;31.80
15543;DHT22;7873;52.230;12.856;2023-04-03T13:56:16;21.70;30.90
15543;DHT22;7873;52.230;12.856;2023-04-03T13:58:54;21.30;31.50
15543;DHT22;7873;52.230;12.856;2023-04-03T14:01:33;21.10;32.10
15543;DHT22;7873;52.230;12.856;2023-04-03T14:04:11;21.10;32.20
15543;DHT22;7873;52.230;12.856;2023-04-03T14:06:41;21.20;31.40
15543;DHT22;7873;52.230;12.856;2023-04-03T14:09:09;21.30;31.10
15543;DHT22;7873;52.230;12.856;2023-04-03T14:11:36;21.40;30.70
15543;DHT22;7873;52.230;12.856;2023-04-03T14:14:05;21.50;30.60
15543;DHT22;7873;52.230;12.856;2023-04-03T14:16:40;21.70;30.80
15543;DHT22;7873;52.230;12.856;2023-04-03T14:19:11;21.80;32.10
15543;DHT22;7873;52.230;12.856;2023-04-03T14:21:45;22.00;30.70
15543;DHT22;7873;52.230;12.856;2023-04-03T14:24:14;22.30;31.40
15543;DHT22;7873;52.230;12.856;2023-04-03T14:26:41;22.50;31.00
15543;DHT22;7873;52.230;12.856;2023-04-03T14:29:09;22.60;31.30
15543;DHT22;7873;52.230;12.856;2023-04-03T14:31:37;22.90;30.70
15543;DHT22;7873;52.230;12.856;2023-04-03T14:34:04;23.20;30.40
15543;DHT22;7873;52.230;12.856;2023-04-03T14:36:33;23.40;29.60
15543;DHT22;7873;52.230;12.856;2023-04-03T14:39:00;23.70;29.30
15543;DHT22;7873;52.230;12.856;2023-04-03T14:41:28;24.00;28.70
15543;DHT22;7873;52.230;12.856;2023-04-03T14:43:56;24.30;28.50
15543;DHT22;7873;52.230;12.856;2023-04-03T14:46:24;24.70;28.10
15543;DHT22;7873;52.230;12.856;2023-04-03T14:48:52;24.80;28.00
15543;DHT22;7873;52.230;12.856;2023-04-03T14:51:19;24.80;28.70
15543;DHT22;7873;52.230;12.856;2023-04-03T14:53:46;25.30;29.50
15543;DHT22;7873;52.230;12.856;2023-04-03T14:56:16;25.20;26.30
15543;DHT22;7873;52.230;12.856;2023-04-03T14:58:45;24.70;23.10
15543;DHT22;7873;52.230;12.856;2023-04-03T15:01:15;24.50;26.50
15543;DHT22;7873;52.230;12.856;2023-04-03T15:03:42;24.90;26.90
15543;DHT22;7873;52.230;12.856;2023-04-03T15:06:10;25.50;26.90
15543;DHT22;7873;52.230;12.856;2023-04-03T15:08:38;25.70;26.20
15543;DHT22;7873;52.230;12.856;2023-04-03T15:11:06;25.80;26.20
15543;DHT22;7873;52.230;12.856;2023-04-03T15:13:34;26.00;26.20
15543;DHT22;7873;52.230;12.856;2023-04-03T15:16:02;26.10;25.50
15543;DHT22;7873;52.230;12.856;2023-04-03T15:18:31;26.10;26.50
15543;DHT22;7873;52.230;12.856;2023-04-03T15:21:02;26.40;26.50
15543;DHT22;7873;52.230;12.856;2023-04-03T15:23:29;26.60;26.00
15543;DHT22;7873;52.230;12.856;2023-04-03T15:25:56;26.70;26.40
15543;DHT22;7873;52.230;12.856;2023-04-03T15:28:25;26.60;26.00
15543;DHT22;7873;52.230;12.856;2023-04-03T15:30:54;26.40;26.00
15543;DHT22;7873;52.230;12.856;2023-04-03T15:33:23;26.70;26.10
15543;DHT22;7873;52.230;12.856;2023-04-03T15:35:51;27.10;26.00
15543;DHT22;7873;52.230;12.856;2023-04-03T15:38:17;27.00;25.70
15543;DHT22;7873;52.230;12.856;2023-04-03T15:40:44;26.90;25.60
15543;DHT22;7873;52.230;12.856;2023-04-03T15:43:12;27.00;26.10
15543;DHT22;7873;52.230;12.856;2023-04-03T15:45:39;26.90;26.00
15543;DHT22;7873;52.230;12.856;2023-04-03T15:48:06;27.20;26.40
15543;DHT22;7873;52.230;12.856;2023-04-03T15:50:35;27.20;26.70
15543;DHT22;7873;52.230;12.856;2023-04-03T15:53:03;27.30;26.70
15543;DHT22;7873;52.230;12.856;2023-04-03T15:55:31;27.30;26.30
15543;DHT22;7873;52.230;12.856;2023-04-03T15:57:59;27.60;26.30
15543;DHT22;7873;52.230;12.856;2023-04-03T16:00:27;27.60;25.90
15543;DHT22;7873;52.230;12.856;2023-04-03T16:02:55;27.70;26.00
15543;DHT22;7873;52.230;12.856;2023-04-03T16:05:25;27.90;26.10
15543;DHT22;7873;52.230;12.856;2023-04-03T16:07:53;28.10;25.80
15543;DHT22;7873;52.230;12.856;2023-04-03T16:10:20;28.20;26.00
15543;DHT22;7873;52.230;12.856;2023-04-03T16:12:47;28.00;24.50